sensor_id;sensor_type;location;lat;lon;timestamp;pressure;altitude;pressure_sealevel;temperature;humidity
49102;BME280;34913;47.520;19.186;2022-11-15T00:00:03;100441.59;;;3.76;100.00
49102;BME280;34913;47.520;19.186;2022-11-15T00:02:28;100434.91;;;3.69;100.00
49102;BME280;34913;47.520;19.186;2022-11-15T00:04:54;100442.81;;;3.69;100.00
49102;BME280;34913;47.520;19.186;2022-11-15T00:07:19;100444.97;;;3.78;100.00
49102;BME280;34913;47.520;19.186;2022-11-15T00:09:45;100442.34;;;3.78;100.00
49102;BME280;34913;47.520;19.186;2022-11-15T00:12:10;100439.16;;;3.71;100.00
49102;BME280;34913;47.520;19.186;2022-11-15T00:14:35;100440.09;;;3.70;100.00
49102;BME280;34913;47.520;19.186;2022-11-15T00:17:01;100431.88;;;3.59;100.00
49102;BME280;34913;47.520;19.186;2022-11-15T00:19:26;100432.44;;;3.47;100.00
49102;BME280;34913;47.520;19.186;2022-11-15T00:21:51;100431.56;;;3.48;100.00
49102;BME280;34913;47.520;19.186;2022-11-15T00:24:17;100424.28;;;3.53;100.00
49102;BME280;34913;47.520;19.186;2022-11-15T00:26:42;100417.84;;;3.41;100.00
49102;BME280;34913;47.520;19.186;2022-11-15T00:29:08;100427.06;;;3.50;100.00
49102;BME280;34913;47.520;19.186;2022-11-15T00:31:33;100431.97;;;3.57;100.00
49102;BME280;34913;47.520;19.186;2022-11-15T00:33:58;100419.78;;;3.56;100.00
49102;BME280;34913;47.520;19.186;2022-11-15T00:36:24;100425.72;;;3.60;100.00
49102;BME280;34913;47.520;19.186;2022-11-15T00:38:49;100423.84;;;3.62;100.00
49102;BME280;34913;47.520;19.186;2022-11-15T00:41:15;100415.06;;;3.63;100.00
49102;BME280;34913;47.520;19.186;2022-11-15T00:43:40;100412.88;;;3.73;100.00
49102;BME280;34913;47.520;19.186;2022-11-15T00:46:08;100414.84;;;3.68;100.00
49102;BME280;34913;47.520;19.186;2022-11-15T00:48:35;100397.78;;;3.59;100.00
49102;BME280;34913;47.520;19.186;2022-11-15T00:51:01;100405.63;;;3.59;100.00
49102;BME280;34913;47.520;19.186;2022-11-15T00:53:26;100403.66;;;3.64;100.00
49102;BME280;34913;47.520;19.186;2022-11-15T00:55:52;100408.75;;;3.67;100.00
49102;BME280;34913;47.520;19.186;2022-11-15T00:58:18;100409.31;;;3.74;100.00
49102;BME280;34913;47.520;19.186;2022-11-15T01:00:43;100408.47;;;3.73;100.00
49102;BME280;34913;47.520;19.186;2022-11-15T01:03:09;100400.81;;;3.69;100.00
49102;BME280;34913;47.520;19.186;2022-11-15T01:05:37;100395.25;;;3.75;100.00
49102;BME280;34913;47.520;19.186;2022-11-15T01:08:03;100398.53;;;3.80;100.00
49102;BME280;34913;47.520;19.186;2022-11-15T01:10:28;100389.63;;;3.82;100.00
49102;BME280;34913;47.520;19.186;2022-11-15T01:12:54;100401.56;;;3.89;100.00
49102;BME280;34913;47.520;19.186;2022-11-15T01:15:20;100396.13;;;3.92;100.00
49102;BME280;34913;47.520;19.186;2022-11-15T01:17:45;100389.94;;;3.93;100.00
49102;BME280;34913;47.520;19.186;2022-11-15T01:20:11;100395.16;;;4.12;100.00
49102;BME280;34913;47.520;19.186;2022-11-15T01:22:36;100381.97;;;4.14;100.00
49102;BME280;34913;47.520;19.186;2022-11-15T01:25:02;100373.59;;;4.06;100.00
49102;BME280;34913;47.520;19.186;2022-11-15T01:27:28;100384.88;;;4.08;100.00
49102;BME280;34913;47.520;19.186;2022-11-15T01:29:53;100385.88;;;4.05;100.00
49102;BME280;34913;47.520;19.186;2022-11-15T01:32:18;100383.19;;;4.07;100.00
49102;BME280;34913;47.520;19.186;2022-11-15T01:34:44;100372.84;;;4.04;100.00
49102;BME280;34913;47.520;19.186;2022-11-15T01:37:09;100369.84;;;4.11;100.00
49102;BME280;34913;47.520;19.186;2022-11-15T01:39:35;100361.09;;;4.11;100.00
49102;BME280;34913;47.520;19.186;2022-11-15T01:42:00;100368.06;;;4.12;100.00
49102;BME280;34913;47.520;19.186;2022-11-15T01:47:43;100369.13;;;4.08;100.00
49102;BME280;34913;47.520;19.186;2022-11-15T01:50:08;100369.75;;;4.13;100.00
49102;BME280;34913;47.520;19.186;2022-11-15T01:52:35;100373.31;;;4.29;100.00
49102;BME280;34913;47.520;19.186;2022-11-15T01:57:31;100367.78;;;4.34;100.00
49102;BME280;34913;47.520;19.186;2022-11-15T01:59:57;100368.03;;;4.46;100.00
49102;BME280;34913;47.520;19.186;2022-11-15T02:02:24;100360.47;;;4.40;100.00
49102;BME280;34913;47.520;19.186;2022-11-15T02:04:49;100356.97;;;4.40;100.00
49102;BME280;34913;47.520;19.186;2022-11-15T02:07:17;100364.47;;;4.47;100.00
49102;BME280;34913;47.520;19.186;2022-11-15T02:09:43;100360.31;;;4.43;100.00
49102;BME280;34913;47.520;19.186;2022-11-15T02:12:09;100357.59;;;4.45;100.00
49102;BME280;34913;47.520;19.186;2022-11-15T02:14:39;100360.22;;;4.45;100.00
49102;BME280;34913;47.520;19.186;2022-11-15T02:17:22;100348.25;;;4.39;100.00
49102;BME280;34913;47.520;19.186;2022-11-15T02:31:15;100350.78;;;4.41;100.00
49102;BME280;34913;47.520;19.186;2022-11-15T02:34:05;100337.72;;;4.39;100.00
49102;BME280;34913;47.520;19.186;2022-11-15T02:42:02;100312.34;;;4.23;100.00
49102;BME280;34913;47.520;19.186;2022-11-15T02:44:37;100333.63;;;4.34;100.00
49102;BME280;34913;47.520;19.186;2022-11-15T02:47:07;100326.16;;;4.26;100.00
49102;BME280;34913;47.520;19.186;2022-11-15T02:49:46;100335.50;;;4.32;100.00
49102;BME280;34913;47.520;19.186;2022-11-15T02:52:30;100331.72;;;4.37;100.00
49102;BME280;34913;47.520;19.186;2022-11-15T02:54:57;100325.16;;;4.29;100.00
49102;BME280;34913;47.520;19.186;2022-11-15T02:57:51;100338.13;;;4.32;100.00
49102;BME280;34913;47.520;19.186;2022-11-15T03:00:18;100327.00;;;4.44;100.00
49102;BME280;34913;47.520;19.186;2022-11-15T03:11:13;100325.78;;;4.67;100.00
49102;BME280;34913;47.520;19.186;2022-11-15T03:16:37;100328.59;;;4.80;100.00
49102;BME280;34913;47.520;19.186;2022-11-15T03:19:29;100329.66;;;4.93;100.00
49102;BME280;34913;47.520;19.186;2022-11-15T03:21:57;100324.81;;;4.85;100.00
49102;BME280;34913;47.520;19.186;2022-11-15T03:24:25;100327.34;;;4.87;100.00
49102;BME280;34913;47.520;19.186;2022-11-15T03:26:54;100320.91;;;4.92;100.00
49102;BME280;34913;47.520;19.186;2022-11-15T03:29:25;100315.78;;;4.89;100.00
49102;BME280;34913;47.520;19.186;2022-11-15T03:32:00;100316.38;;;4.79;100.00
49102;BME280;34913;47.520;19.186;2022-11-15T03:34:37;100314.59;;;4.79;100.00
49102;BME280;34913;47.520;19.186;2022-11-15T03:37:04;100306.81;;;4.78;100.00
49102;BME280;34913;47.520;19.186;2022-11-15T03:39:30;100308.59;;;4.77;100.00
49102;BME280;34913;47.520;19.186;2022-11-15T03:47:32;100306.84;;;4.60;100.00
49102;BME280;34913;47.520;19.186;2022-11-15T03:50:02;100298.97;;;4.60;100.00
49102;BME280;34913;47.520;19.186;2022-11-15T03:52:33;100299.25;;;4.71;100.00
49102;BME280;34913;47.520;19.186;2022-11-15T03:55:01;100303.56;;;4.72;100.00
49102;BME280;34913;47.520;19.186;2022-11-15T03:57:26;100295.50;;;4.60;100.00
49102;BME280;34913;47.520;19.186;2022-11-15T03:59:52;100290.47;;;4.55;100.00
49102;BME280;34913;47.520;19.186;2022-11-15T04:02:17;100295.16;;;4.66;100.00
49102;BME280;34913;47.520;19.186;2022-11-15T04:04:43;100293.84;;;4.74;100.00
49102;BME280;34913;47.520;19.186;2022-11-15T04:07:08;100285.94;;;4.74;100.00
49102;BME280;34913;47.520;19.186;2022-11-15T04:09:34;100291.34;;;4.71;100.00
49102;BME280;34913;47.520;19.186;2022-11-15T04:12:19;100271.66;;;4.63;100.00
49102;BME280;34913;47.520;19.186;2022-11-15T04:14:58;100253.53;;;4.58;100.00
49102;BME280;34913;47.520;19.186;2022-11-15T04:17:36;100246.91;;;4.51;100.00
49102;BME280;34913;47.520;19.186;2022-11-15T04:20:04;100254.38;;;4.59;100.00
49102;BME280;34913;47.520;19.186;2022-11-15T04:22:48;100241.06;;;4.62;100.00
49102;BME280;34913;47.520;19.186;2022-11-15T04:25:32;100250.97;;;4.72;100.00
49102;BME280;34913;47.520;19.186;2022-11-15T04:27:57;100243.09;;;4.72;100.00
49102;BME280;34913;47.520;19.186;2022-11-15T04:30:23;100240.53;;;4.71;100.00
49102;BME280;34913;47.520;19.186;2022-11-15T04:32:48;100249.63;;;4.81;100.00
49102;BME280;34913;47.520;19.186;2022-11-15T04:35:13;100254.63;;;4.86;100.00
49102;BME280;34913;47.520;19.186;2022-11-15T04:37:39;100257.47;;;4.98;100.00
49102;BME280;34913;47.520;19.186;2022-11-15T04:40:05;100260.56;;;5.05;100.00
49102;BME280;34913;47.520;19.186;2022-11-15T04:42:30;100263.56;;;5.15;100.00
49102;BME280;34913;47.520;19.186;2022-11-15T04:44:55;100256.00;;;5.09;100.00
49102;BME280;34913;47.520;19.186;2022-11-15T04:47:21;100257.78;;;4.92;100.00
49102;BME280;34913;47.520;19.186;2022-11-15T04:49:46;100255.91;;;4.94;100.00
49102;BME280;34913;47.520;19.186;2022-11-15T04:52:12;100257.69;;;4.94;100.00
49102;BME280;34913;47.520;19.186;2022-11-15T04:54:37;100248.44;;;4.87;100.00
49102;BME280;34913;47.520;19.186;2022-11-15T04:57:03;100235.38;;;4.69;100.00
49102;BME280;34913;47.520;19.186;2022-11-15T04:59:28;100250.97;;;4.72;100.00
49102;BME280;34913;47.520;19.186;2022-11-15T05:01:53;100247.25;;;4.76;100.00
49102;BME280;34913;47.520;19.186;2022-11-15T05:04:19;100232.50;;;4.74;100.00
49102;BME280;34913;47.520;19.186;2022-11-15T05:06:46;100236.03;;;4.73;100.00
49102;BME280;34913;47.520;19.186;2022-11-15T05:09:11;100246.31;;;4.78;100.00
49102;BME280;34913;47.520;19.186;2022-11-15T05:11:38;100247.00;;;4.81;100.00
49102;BME280;34913;47.520;19.186;2022-11-15T05:14:04;100241.50;;;4.86;100.00
49102;BME280;34913;47.520;19.186;2022-11-15T05:16:29;100241.25;;;4.90;100.00
49102;BME280;34913;47.520;19.186;2022-11-15T05:18:55;100240.41;;;4.90;100.00
49102;BME280;34913;47.520;19.186;2022-11-15T05:21:21;100236.41;;;4.83;100.00
49102;BME280;34913;47.520;19.186;2022-11-15T05:23:46;100240.88;;;4.81;100.00
49102;BME280;34913;47.520;19.186;2022-11-15T05:26:12;100241.16;;;4.76;100.00
49102;BME280;34913;47.520;19.186;2022-11-15T05:28:38;100242.75;;;4.79;100.00
49102;BME280;34913;47.520;19.186;2022-11-15T05:31:10;100246.84;;;4.84;100.00
49102;BME280;34913;47.520;19.186;2022-11-15T05:33:35;100242.75;;;4.94;100.00
49102;BME280;34913;47.520;19.186;2022-11-15T05:36:06;100243.78;;;4.92;100.00
49102;BME280;34913;47.520;19.186;2022-11-15T05:38:33;100251.34;;;4.98;100.00
49102;BME280;34913;47.520;19.186;2022-11-15T05:40:59;100254.22;;;5.09;100.00
49102;BME280;34913;47.520;19.186;2022-11-15T05:43:25;100252.00;;;5.17;100.00
49102;BME280;34913;47.520;19.186;2022-11-15T05:45:51;100249.91;;;5.08;100.00
49102;BME280;34913;47.520;19.186;2022-11-15T05:48:17;100252.84;;;5.02;100.00
49102;BME280;34913;47.520;19.186;2022-11-15T05:50:45;100245.81;;;5.02;100.00
49102;BME280;34913;47.520;19.186;2022-11-15T05:53:13;100256.75;;;5.11;100.00
49102;BME280;34913;47.520;19.186;2022-11-15T05:55:39;100237.41;;;5.12;100.00
49102;BME280;34913;47.520;19.186;2022-11-15T05:58:05;100240.22;;;5.09;100.00
49102;BME280;34913;47.520;19.186;2022-11-15T06:00:31;100233.69;;;5.00;100.00
49102;BME280;34913;47.520;19.186;2022-11-15T06:02:56;100238.69;;;5.04;100.00
49102;BME280;34913;47.520;19.186;2022-11-15T06:05:22;100235.91;;;5.08;100.00
49102;BME280;34913;47.520;19.186;2022-11-15T06:07:47;100230.53;;;5.09;100.00
49102;BME280;34913;47.520;19.186;2022-11-15T06:10:12;100235.63;;;5.12;100.00
49102;BME280;34913;47.520;19.186;2022-11-15T06:12:38;100230.53;;;5.09;100.00
49102;BME280;34913;47.520;19.186;2022-11-15T06:15:03;100223.75;;;5.05;100.00
49102;BME280;34913;47.520;19.186;2022-11-15T06:17:29;100220.25;;;5.04;100.00
49102;BME280;34913;47.520;19.186;2022-11-15T06:19:54;100221.81;;;5.09;100.00
49102;BME280;34913;47.520;19.186;2022-11-15T06:22:20;100221.28;;;5.18;100.00
49102;BME280;34913;47.520;19.186;2022-11-15T06:24:45;100225.91;;;5.28;100.00
49102;BME280;34913;47.520;19.186;2022-11-15T06:27:11;100230.84;;;5.35;100.00
49102;BME280;34913;47.520;19.186;2022-11-15T06:29:37;100236.19;;;5.33;100.00
49102;BME280;34913;47.520;19.186;2022-11-15T06:32:02;100235.25;;;5.34;100.00
49102;BME280;34913;47.520;19.186;2022-11-15T06:34:28;100236.69;;;5.40;100.00
49102;BME280;34913;47.520;19.186;2022-11-15T06:36:53;100244.16;;;5.47;100.00
49102;BME280;34913;47.520;19.186;2022-11-15T06:39:18;100240.50;;;5.50;100.00
49102;BME280;34913;47.520;19.186;2022-11-15T06:41:44;100242.09;;;5.52;100.00
49102;BME280;34913;47.520;19.186;2022-11-15T06:44:09;100235.63;;;5.58;100.00
49102;BME280;34913;47.520;19.186;2022-11-15T06:46:35;100239.28;;;5.55;100.00
49102;BME280;34913;47.520;19.186;2022-11-15T06:49:00;100233.75;;;5.60;100.00
49102;BME280;34913;47.520;19.186;2022-11-15T06:51:25;100236.47;;;5.58;100.00
49102;BME280;34913;47.520;19.186;2022-11-15T06:53:51;100238.44;;;5.55;100.00
49102;BME280;34913;47.520;19.186;2022-11-15T06:56:16;100241.94;;;5.55;100.00
49102;BME280;34913;47.520;19.186;2022-11-15T06:58:42;100238.78;;;5.49;100.00
49102;BME280;34913;47.520;19.186;2022-11-15T07:01:10;100238.28;;;5.42;100.00
49102;BME280;34913;47.520;19.186;2022-11-15T07:03:41;100234.63;;;5.45;100.00
49102;BME280;34913;47.520;19.186;2022-11-15T07:06:07;100241.94;;;5.55;100.00
49102;BME280;34913;47.520;19.186;2022-11-15T07:08:34;100233.28;;;5.53;100.00
49102;BME280;34913;47.520;19.186;2022-11-15T07:11:01;100231.84;;;5.48;100.00
49102;BME280;34913;47.520;19.186;2022-11-15T07:13:28;100232.78;;;5.47;100.00
49102;BME280;34913;47.520;19.186;2022-11-15T07:15:54;100240.22;;;5.54;100.00
49102;BME280;34913;47.520;19.186;2022-11-15T07:18:20;100231.91;;;5.62;100.00
49102;BME280;34913;47.520;19.186;2022-11-15T07:20:45;100233.59;;;5.63;100.00
49102;BME280;34913;47.520;19.186;2022-11-15T07:23:11;100226.94;;;5.72;100.00
49102;BME280;34913;47.520;19.186;2022-11-15T07:25:36;100237.00;;;5.79;100.00
49102;BME280;34913;47.520;19.186;2022-11-15T07:28:02;100234.03;;;5.85;100.00
49102;BME280;34913;47.520;19.186;2022-11-15T07:30:28;100214.25;;;5.78;100.00
49102;BME280;34913;47.520;19.186;2022-11-15T07:32:59;100218.28;;;5.84;100.00
49102;BME280;34913;47.520;19.186;2022-11-15T07:35:26;100219.72;;;5.89;100.00
49102;BME280;34913;47.520;19.186;2022-11-15T07:37:55;100223.28;;;5.88;100.00
49102;BME280;34913;47.520;19.186;2022-11-15T07:40:21;100222.53;;;5.86;100.00
49102;BME280;34913;47.520;19.186;2022-11-15T07:42:47;100222.44;;;5.88;100.00
49102;BME280;34913;47.520;19.186;2022-11-15T07:45:19;100217.44;;;5.83;100.00
49102;BME280;34913;47.520;19.186;2022-11-15T07:47:46;100220.00;;;5.85;100.00
49102;BME280;34913;47.520;19.186;2022-11-15T07:50:11;100225.81;;;5.90;100.00
49102;BME280;34913;47.520;19.186;2022-11-15T07:52:37;100223.06;;;5.93;100.00
49102;BME280;34913;47.520;19.186;2022-11-15T07:55:02;100222.03;;;5.96;100.00
49102;BME280;34913;47.520;19.186;2022-11-15T07:57:29;100219.88;;;6.02;100.00
49102;BME280;34913;47.520;19.186;2022-11-15T07:59:54;100213.34;;;6.08;100.00
49102;BME280;34913;47.520;19.186;2022-11-15T08:02:20;100216.78;;;6.10;100.00
49102;BME280;34913;47.520;19.186;2022-11-15T08:04:45;100211.59;;;6.23;100.00
49102;BME280;34913;47.520;19.186;2022-11-15T08:07:11;100191.53;;;6.20;100.00
49102;BME280;34913;47.520;19.186;2022-11-15T08:09:36;100203.41;;;6.27;100.00
49102;BME280;34913;47.520;19.186;2022-11-15T08:12:01;100203.09;;;6.32;100.00
49102;BME280;34913;47.520;19.186;2022-11-15T08:14:27;100196.13;;;6.31;100.00
49102;BME280;34913;47.520;19.186;2022-11-15T08:16:54;100196.81;;;6.34;100.00
49102;BME280;34913;47.520;19.186;2022-11-15T08:19:19;100193.03;;;6.38;100.00
49102;BME280;34913;47.520;19.186;2022-11-15T08:21:45;100191.25;;;6.39;100.00
49102;BME280;34913;47.520;19.186;2022-11-15T08:24:10;100182.22;;;6.43;100.00
49102;BME280;34913;47.520;19.186;2022-11-15T08:26:36;100178.84;;;6.41;100.00
49102;BME280;34913;47.520;19.186;2022-11-15T08:29:01;100172.97;;;6.50;100.00
49102;BME280;34913;47.520;19.186;2022-11-15T08:31:27;100180.19;;;6.61;100.00
49102;BME280;34913;47.520;19.186;2022-11-15T08:33:52;100184.13;;;6.82;100.00
49102;BME280;34913;47.520;19.186;2022-11-15T08:36:18;100165.31;;;6.74;100.00
49102;BME280;34913;47.520;19.186;2022-11-15T08:38:43;100166.03;;;6.76;100.00
49102;BME280;34913;47.520;19.186;2022-11-15T08:41:12;100162.56;;;6.76;100.00
49102;BME280;34913;47.520;19.186;2022-11-15T08:43:38;100162.81;;;6.85;100.00
49102;BME280;34913;47.520;19.186;2022-11-15T08:46:04;100160.28;;;6.84;100.00
49102;BME280;34913;47.520;19.186;2022-11-15T08:48:29;100162.69;;;6.87;100.00
49102;BME280;34913;47.520;19.186;2022-11-15T08:50:55;100165.34;;;6.87;100.00
49102;BME280;34913;47.520;19.186;2022-11-15T08:53:21;100160.13;;;6.99;100.00
49102;BME280;34913;47.520;19.186;2022-11-15T08:55:47;100164.91;;;7.07;100.00
49102;BME280;34913;47.520;19.186;2022-11-15T08:58:12;100159.53;;;7.09;100.00
49102;BME280;34913;47.520;19.186;2022-11-15T09:00:37;100156.88;;;7.09;100.00
49102;BME280;34913;47.520;19.186;2022-11-15T09:03:04;100153.41;;;7.08;100.00
49102;BME280;34913;47.520;19.186;2022-11-15T09:05:30;100147.16;;;7.09;100.00
49102;BME280;34913;47.520;19.186;2022-11-15T09:07:56;100150.06;;;7.19;100.00
49102;BME280;34913;47.520;19.186;2022-11-15T09:10:21;100162.00;;;7.24;100.00
49102;BME280;34913;47.520;19.186;2022-11-15T09:12:47;100158.00;;;7.32;100.00
49102;BME280;34913;47.520;19.186;2022-11-15T09:15:14;100148.09;;;7.35;100.00
49102;BME280;34913;47.520;19.186;2022-11-15T09:17:40;100141.88;;;7.36;100.00
49102;BME280;34913;47.520;19.186;2022-11-15T09:20:07;100140.81;;;7.39;100.00
49102;BME280;34913;47.520;19.186;2022-11-15T09:22:32;100142.81;;;7.35;100.00
49102;BME280;34913;47.520;19.186;2022-11-15T09:24:58;100140.38;;;7.32;100.00
49102;BME280;34913;47.520;19.186;2022-11-15T09:27:27;100136.25;;;7.28;100.00
49102;BME280;34913;47.520;19.186;2022-11-15T09:29:53;100131.78;;;7.16;100.00
49102;BME280;34913;47.520;19.186;2022-11-15T09:32:18;100122.06;;;7.16;100.00
49102;BME280;34913;47.520;19.186;2022-11-15T09:34:44;100124.19;;;7.11;100.00
49102;BME280;34913;47.520;19.186;2022-11-15T09:37:09;100120.38;;;7.15;100.00
49102;BME280;34913;47.520;19.186;2022-11-15T09:39:35;100120.31;;;7.30;100.00
49102;BME280;34913;47.520;19.186;2022-11-15T09:49:56;100115.97;;;7.41;100.00
49102;BME280;34913;47.520;19.186;2022-11-15T09:52:23;100111.78;;;7.51;100.00
49102;BME280;34913;47.520;19.186;2022-11-15T09:54:51;100107.34;;;7.52;100.00
49102;BME280;34913;47.520;19.186;2022-11-15T10:03:00;100108.59;;;7.72;100.00
49102;BME280;34913;47.520;19.186;2022-11-15T10:05:29;100106.69;;;7.74;100.00
49102;BME280;34913;47.520;19.186;2022-11-15T10:08:33;100098.88;;;7.85;100.00
49102;BME280;34913;47.520;19.186;2022-11-15T10:11:10;100089.03;;;7.87;100.00
49102;BME280;34913;47.520;19.186;2022-11-15T10:13:40;100092.03;;;7.82;100.00
49102;BME280;34913;47.520;19.186;2022-11-15T10:16:21;100086.94;;;7.92;100.00
49102;BME280;34913;47.520;19.186;2022-11-15T10:19:05;100085.22;;;8.04;100.00
49102;BME280;34913;47.520;19.186;2022-11-15T10:24:28;100076.78;;;7.86;99.83
49102;BME280;34913;47.520;19.186;2022-11-15T10:26:55;100072.03;;;7.78;100.00
49102;BME280;34913;47.520;19.186;2022-11-15T10:29:22;100073.41;;;7.84;100.00
49102;BME280;34913;47.520;19.186;2022-11-15T10:31:48;100075.00;;;7.74;100.00
49102;BME280;34913;47.520;19.186;2022-11-15T10:34:16;100068.88;;;7.73;100.00
49102;BME280;34913;47.520;19.186;2022-11-15T10:36:57;100067.41;;;7.82;100.00
49102;BME280;34913;47.520;19.186;2022-11-15T10:39:23;100062.97;;;7.82;100.00
49102;BME280;34913;47.520;19.186;2022-11-15T10:41:48;100062.50;;;7.89;100.00
49102;BME280;34913;47.520;19.186;2022-11-15T10:46:45;100044.47;;;7.70;100.00
49102;BME280;34913;47.520;19.186;2022-11-15T10:49:23;100035.41;;;7.61;100.00
49102;BME280;34913;47.520;19.186;2022-11-15T10:54:45;100044.34;;;7.71;100.00
49102;BME280;34913;47.520;19.186;2022-11-15T10:57:38;100033.47;;;7.63;100.00
49102;BME280;34913;47.520;19.186;2022-11-15T11:00:05;100022.06;;;7.50;100.00
49102;BME280;34913;47.520;19.186;2022-11-15T11:02:32;100024.81;;;7.48;100.00
49102;BME280;34913;47.520;19.186;2022-11-15T11:05:00;100026.19;;;7.54;100.00
49102;BME280;34913;47.520;19.186;2022-11-15T11:07:31;100014.06;;;7.51;100.00
49102;BME280;34913;47.520;19.186;2022-11-15T11:10:18;100013.63;;;7.57;100.00
49102;BME280;34913;47.520;19.186;2022-11-15T11:12:44;100009.41;;;7.55;100.00
49102;BME280;34913;47.520;19.186;2022-11-15T11:15:11;99999.59;;;7.44;100.00
49102;BME280;34913;47.520;19.186;2022-11-15T11:18:06;99991.88;;;7.41;100.00
49102;BME280;34913;47.520;19.186;2022-11-15T11:43:54;99983.75;;;7.94;100.00
49102;BME280;34913;47.520;19.186;2022-11-15T11:46:47;99981.44;;;7.89;100.00
49102;BME280;34913;47.520;19.186;2022-11-15T11:49:09;99981.53;;;8.00;100.00
49102;BME280;34913;47.520;19.186;2022-11-15T11:51:42;99982.47;;;7.99;100.00
49102;BME280;34913;47.520;19.186;2022-11-15T11:54:20;99975.41;;;8.00;100.00
49102;BME280;34913;47.520;19.186;2022-11-15T11:56:48;99968.91;;;8.04;100.00
49102;BME280;34913;47.520;19.186;2022-11-15T11:59:54;99961.50;;;8.09;100.00
49102;BME280;34913;47.520;19.186;2022-11-15T12:02:28;99951.16;;;8.06;100.00
49102;BME280;34913;47.520;19.186;2022-11-15T12:05:01;99951.44;;;8.14;100.00
49102;BME280;34913;47.520;19.186;2022-11-15T12:07:32;99954.47;;;8.21;100.00
49102;BME280;34913;47.520;19.186;2022-11-15T12:10:45;99955.38;;;8.32;98.33
49102;BME280;34913;47.520;19.186;2022-11-15T12:13:30;99947.66;;;8.29;97.37
49102;BME280;34913;47.520;19.186;2022-11-15T12:16:18;99944.00;;;8.19;98.17
49102;BME280;34913;47.520;19.186;2022-11-15T12:18:50;99937.88;;;8.19;98.00
49102;BME280;34913;47.520;19.186;2022-11-15T12:24:04;99938.56;;;8.09;98.51
49102;BME280;34913;47.520;19.186;2022-11-15T12:26:37;99935.59;;;8.14;98.66
49102;BME280;34913;47.520;19.186;2022-11-15T12:29:14;99932.53;;;8.07;99.69
49102;BME280;34913;47.520;19.186;2022-11-15T12:31:44;99924.38;;;8.10;98.33
49102;BME280;34913;47.520;19.186;2022-11-15T12:36:45;99919.09;;;8.10;98.79
49102;BME280;34913;47.520;19.186;2022-11-15T12:39:14;99912.84;;;8.11;98.94
49102;BME280;34913;47.520;19.186;2022-11-15T12:59:54;99894.34;;;7.88;98.86
49102;BME280;34913;47.520;19.186;2022-11-15T13:17:50;99887.06;;;7.91;99.36
49102;BME280;34913;47.520;19.186;2022-11-15T13:31:43;99883.03;;;8.09;97.85
49102;BME280;34913;47.520;19.186;2022-11-15T13:34:25;99879.59;;;8.20;97.48
49102;BME280;34913;47.520;19.186;2022-11-15T13:36:51;99883.44;;;8.16;97.33
49102;BME280;34913;47.520;19.186;2022-11-15T13:39:33;99866.59;;;8.06;99.29
49102;BME280;34913;47.520;19.186;2022-11-15T13:41:59;99871.78;;;8.19;98.93
49102;BME280;34913;47.520;19.186;2022-11-15T13:44:29;99875.91;;;7.99;99.67
49102;BME280;34913;47.520;19.186;2022-11-15T13:47:16;99871.41;;;7.88;100.00
49102;BME280;34913;47.520;19.186;2022-11-15T13:49:43;99870.84;;;7.96;100.00
49102;BME280;34913;47.520;19.186;2022-11-15T13:52:13;99855.72;;;7.98;100.00
49102;BME280;34913;47.520;19.186;2022-11-15T13:54:45;99853.41;;;7.93;100.00
49102;BME280;34913;47.520;19.186;2022-11-15T13:57:16;99843.13;;;7.77;100.00
49102;BME280;34913;47.520;19.186;2022-11-15T14:00:46;99831.50;;;7.80;100.00
49102;BME280;34913;47.520;19.186;2022-11-15T14:02:41;99838.69;;;7.78;100.00
49102;BME280;34913;47.520;19.186;2022-11-15T14:05:21;99830.22;;;7.62;100.00
49102;BME280;34913;47.520;19.186;2022-11-15T14:08:03;99833.56;;;7.64;100.00
49102;BME280;34913;47.520;19.186;2022-11-15T14:10:36;99823.63;;;7.43;100.00
49102;BME280;34913;47.520;19.186;2022-11-15T14:13:03;99829.84;;;7.42;100.00
49102;BME280;34913;47.520;19.186;2022-11-15T14:15:32;99834.06;;;7.45;100.00
49102;BME280;34913;47.520;19.186;2022-11-15T14:17:59;99827.97;;;7.44;100.00
49102;BME280;34913;47.520;19.186;2022-11-15T14:22:52;99827.41;;;7.52;100.00
49102;BME280;34913;47.520;19.186;2022-11-15T14:25:23;99819.13;;;7.56;100.00
49102;BME280;34913;47.520;19.186;2022-11-15T14:30:34;99816.63;;;7.42;100.00
49102;BME280;34913;47.520;19.186;2022-11-15T14:32:59;99808.06;;;7.51;100.00
49102;BME280;34913;47.520;19.186;2022-11-15T14:35:25;99802.97;;;7.24;100.00
49102;BME280;34913;47.520;19.186;2022-11-15T14:37:50;99804.59;;;7.14;100.00
49102;BME280;34913;47.520;19.186;2022-11-15T14:40:18;99807.66;;;7.21;100.00
49102;BME280;34913;47.520;19.186;2022-11-15T14:42:45;99807.94;;;7.29;100.00
49102;BME280;34913;47.520;19.186;2022-11-15T14:45:19;99795.00;;;7.13;100.00
49102;BME280;34913;47.520;19.186;2022-11-15T14:47:45;99803.38;;;7.31;100.00
49102;BME280;34913;47.520;19.186;2022-11-15T14:50:16;99800.91;;;7.41;100.00
49102;BME280;34913;47.520;19.186;2022-11-15T14:52:42;99799.03;;;7.43;100.00
49102;BME280;34913;47.520;19.186;2022-11-15T14:57:36;99778.63;;;7.08;100.00
49102;BME280;34913;47.520;19.186;2022-11-15T15:00:02;99776.66;;;6.99;100.00
49102;BME280;34913;47.520;19.186;2022-11-15T15:02:28;99777.28;;;7.03;100.00
49102;BME280;34913;47.520;19.186;2022-11-15T15:04:53;99768.19;;;7.07;100.00
49102;BME280;34913;47.520;19.186;2022-11-15T15:07:19;99765.81;;;6.91;100.00
49102;BME280;34913;47.520;19.186;2022-11-15T15:09:45;99771.19;;;6.89;100.00
49102;BME280;34913;47.520;19.186;2022-11-15T15:12:18;99775.59;;;7.02;100.00